Time;durP1;ratioP1;P1;durP2;ratioP2;P2;SDS_P1;SDS_P2;PMS_P1;PMS_P2;Temp;Humidity;BMP_temperature;BMP_pressure;BME280_temperature;BME280_humidity;BME280_pressure;Samples;Min_cycle;Max_cycle;Signal;HPM_P1;HPM_P2
2022/12/01 00:01:07;;;;;;;3.72;3.20;;;;;;;16.47;38.00;102733.22;4999079;28;20021;-95
2022/12/01 00:03:33;;;;;;;3.42;3.08;;;;;;;16.49;37.74;102739.31;4998663;28;20396;-95
2022/12/01 00:05:59;;;;;;;4.40;3.45;;;;;;;16.49;38.00;102739.31;5015061;28;20033;-94
2022/12/01 00:08:26;;;;;;;3.75;3.15;;;;;;;16.47;37.96;102741.31;5014709;28;20370;-94
2022/12/01 00:10:52;;;;;;;3.72;2.90;;;;;;;16.49;38.00;102739.31;4998205;28;20028;-94
2022/12/01 00:13:17;;;;;;;4.47;3.17;;;;;;;16.45;38.12;102738.81;5014719;28;20026;-95
2022/12/01 00:15:43;;;;;;;4.32;3.25;;;;;;;16.47;37.99;102744.00;5014945;28;20102;-94
2022/12/01 00:18:09;;;;;;;3.85;3.30;;;;;;;16.50;38.18;102749.91;4998293;28;20029;-95
2022/12/01 00:20:34;;;;;;;3.72;3.03;;;;;;;16.51;38.01;102740.81;5014701;28;20546;-94
2022/12/01 00:23:00;;;;;;;3.65;3.20;;;;;;;16.48;38.11;102741.16;5014538;28;20022;-94
2022/12/01 00:25:26;;;;;;;3.33;2.97;;;;;;;16.49;37.96;102747.41;5014336;28;20018;-94
2022/12/01 00:27:51;;;;;;;3.72;2.78;;;;;;;16.48;38.17;102745.72;4997834;28;20025;-95
2022/12/01 00:30:18;;;;;;;3.58;2.90;;;;;;;16.45;37.97;102740.66;5013951;28;20025;-94
2022/12/01 00:32:44;;;;;;;3.80;2.97;;;;;;;16.50;38.10;102747.22;4997457;28;20052;-95
2022/12/01 00:35:10;;;;;;;2.95;2.50;;;;;;;16.46;38.16;102742.34;5006101;28;20578;-94
2022/12/01 00:37:35;;;;;;;3.13;2.83;;;;;;;16.46;38.02;102747.75;5034537;28;20354;-94
2022/12/01 00:40:01;;;;;;;3.03;2.72;;;;;;;16.50;37.98;102754.47;5034069;28;20036;-95
2022/12/01 00:42:27;;;;;;;3.40;3.05;;;;;;;16.50;37.99;102754.47;5034175;28;20045;-94
2022/12/01 00:44:52;;;;;;;4.32;3.38;;;;;;;16.52;38.13;102749.75;5017699;28;20025;-94
2022/12/01 00:47:18;;;;;;;3.10;2.80;;;;;;;16.51;37.80;102742.69;5034179;28;20025;-95
2022/12/01 00:49:46;;;;;;;4.13;3.00;;;;;;;16.50;38.03;102744.53;5050479;28;20403;-94
2022/12/01 00:52:13;;;;;;;4.22;3.10;;;;;;;16.50;38.04;102738.28;5050529;28;20033;-94
2022/12/01 00:54:38;;;;;;;3.28;2.83;;;;;;;16.47;37.96;102733.22;5017448;28;20024;-94
2022/12/01 00:57:04;;;;;;;3.33;2.80;;;;;;;16.48;37.97;102734.91;5051589;28;20083;-94
2022/12/01 00:59:30;;;;;;;3.72;3.05;;;;;;;16.47;38.09;102734.09;5033956;28;20082;-93
2022/12/01 01:01:55;;;;;;;3.88;3.35;;;;;;;16.47;38.04;102738.63;5050464;28;20532;-95
2022/12/01 01:04:21;;;;;;;3.20;2.75;;;;;;;16.48;38.03;102737.63;5017248;28;20082;-94
2022/12/01 01:06:46;;;;;;;3.22;2.80;;;;;;;16.48;38.13;102734.91;5050022;28;20025;-95
2022/12/01 01:09:12;;;;;;;3.00;2.70;;;;;;;16.47;38.02;102738.63;5051079;28;20100;-95
2022/12/01 01:11:38;;;;;;;4.05;3.08;;;;;;;16.47;38.16;102725.13;5033494;28;20024;-94
2022/12/01 01:14:04;;;;;;;3.55;2.90;;;;;;;16.46;38.24;102727.00;5033468;28;20025;-94
2022/12/01 01:16:29;;;;;;;4.30;3.10;;;;;;;16.49;37.94;102736.63;5033635;28;20052;-95
2022/12/01 01:18:56;;;;;;;3.28;2.90;;;;;;;16.49;38.11;102733.91;5049936;28;20033;-94
2022/12/01 01:21:22;;;;;;;2.95;2.65;;;;;;;16.44;38.13;102734.41;5050977;28;20021;-94
2022/12/01 01:23:48;;;;;;;3.90;2.75;;;;;;;16.47;38.07;102734.09;5033360;28;20048;-94
2022/12/01 01:26:16;;;;;;;3.28;2.80;;;;;;;16.48;38.31;102735.75;5050051;28;20396;-93
2022/12/01 01:28:42;;;;;;;3.97;3.03;;;;;;;16.49;38.03;102736.63;5017050;28;20475;-95
2022/12/01 01:31:13;;;;;;;3.60;3.05;;;;;;;16.53;38.11;102743.34;5033243;28;20107;-94
2022/12/01 01:33:38;;;;;;;3.05;2.70;;;;;;;16.49;38.18;102733.91;5033335;28;20061;-94
2022/12/01 01:36:04;;;;;;;3.90;2.90;;;;;;;16.51;37.94;102732.72;5016803;28;20055;-95
2022/12/01 01:38:30;;;;;;;3.38;2.78;;;;;;;16.47;37.90;102730.53;5033361;28;20025;-95
2022/12/01 01:40:56;;;;;;;3.70;3.10;;;;;;;16.46;38.14;102724.28;5033558;28;20035;-95
2022/12/01 01:43:46;;;;;;;3.47;2.90;;;;;;;16.54;37.97;102739.66;5018934;28;20028;-94
2022/12/01 01:46:32;;;;;;;3.33;3.00;;;;;;;16.51;38.06;102734.59;5053809;28;20025;-94
2022/12/01 01:49:00;;;;;;;3.80;3.00;;;;;;;16.52;37.98;102736.25;5022987;28;20021;-94
2022/12/01 01:51:45;;;;;;;3.58;2.70;;;;;;;16.51;38.12;102740.00;5053483;28;20460;-94
2022/12/01 01:54:18;;;;;;;3.33;2.90;;;;;;;16.49;38.05;102733.91;5053813;28;20021;-94
2022/12/01 01:56:44;;;;;;;4.07;3.25;;;;;;;16.51;38.08;102740.00;5020719;28;20075;-94
2022/12/01 01:59:10;;;;;;;3.10;2.65;;;;;;;16.51;38.28;102738.13;5036799;28;20025;-95
2022/12/01 02:01:36;;;;;;;3.88;3.22;;;;;;;16.46;38.08;102724.28;5037014;28;20032;-94
2022/12/01 02:04:02;;;;;;;2.92;2.50;;;;;;;16.50;38.04;102733.72;5020324;28;20025;-94
2022/12/01 02:06:27;;;;;;;3.40;2.78;;;;;;;16.51;38.06;102738.13;5020277;28;20028;-94
2022/12/01 02:08:53;;;;;;;3.80;3.00;;;;;;;16.51;38.13;102740.00;5036551;28;20111;-94
2022/12/01 02:11:32;;;;;;;3.60;3.08;;;;;;;16.52;38.12;102737.13;5020110;28;20476;-94
2022/12/01 02:14:19;;;;;;;2.92;2.63;;;;;;;16.53;37.93;102740.66;5053565;28;20021;-93
2022/12/01 02:16:49;;;;;;;3.45;2.53;;;;;;;16.54;37.99;102742.34;5054675;28;20075;-94
2022/12/01 02:19:52;;;;;;;3.55;3.00;;;;;;;16.53;38.08;102743.34;5052983;28;20510;-94
2022/12/01 02:22:29;;;;;;;3.75;2.85;;;;;;;16.51;37.91;102740.00;5053181;28;20048;-94
2022/12/01 02:25:32;;;;;;;3.80;3.20;;;;;;;16.53;38.01;102743.34;5036708;28;20454;-94
2022/12/01 02:28:13;;;;;;;3.10;2.65;;;;;;;16.53;38.09;102743.34;5054204;28;20029;-95
2022/12/01 02:30:47;;;;;;;3.75;2.95;;;;;;;16.53;38.08;102744.19;5053109;28;20464;-95
2022/12/01 02:33:22;;;;;;;3.22;2.65;;;;;;;16.52;38.01;102747.06;5053073;28;20029;-94
2022/12/01 02:36:07;;;;;;;3.55;2.92;;;;;;;16.51;38.21;102731.88;5036122;28;20354;-94
2022/12/01 02:38:46;;;;;;;3.20;2.50;;;;;;;16.53;37.85;102737.94;5038691;28;20389;-94
2022/12/01 02:41:19;;;;;;;3.60;2.50;;;;;;;16.52;38.06;102731.72;5020500;28;20017;-95
2022/12/01 02:44:10;;;;;;;3.72;3.08;;;;;;;16.54;38.07;102736.94;5035984;28;20239;-95
2022/12/01 02:47:09;;;;;;;3.83;3.05;;;;;;;16.52;37.97;102737.13;5035828;28;20068;-95
2022/12/01 02:49:44;;;;;;;3.30;2.78;;;;;;;16.51;38.16;102737.28;5017702;28;20056;-94
2022/12/01 02:52:10;;;;;;;3.25;2.85;;;;;;;16.53;38.16;102748.75;5019598;28;20144;-96
2022/12/01 02:54:35;;;;;;;3.53;2.63;;;;;;;16.53;38.05;102748.75;5034951;28;20025;-94
2022/12/01 02:57:05;;;;;;;3.88;2.92;;;;;;;16.54;38.00;102745.06;5035969;28;20529;-94
2022/12/01 02:59:30;;;;;;;3.80;3.17;;;;;;;16.49;37.97;102744.72;5036522;28;20025;-94
2022/12/01 03:02:26;;;;;;;2.95;2.58;;;;;;;16.55;37.94;102751.28;5019199;28;20490;-94
2022/12/01 03:05:10;;;;;;;2.97;2.67;;;;;;;16.56;38.10;102758.34;5031497;28;20488;-94
2022/12/01 03:08:12;;;;;;;3.35;2.55;;;;;;;16.53;38.36;102754.16;5020296;28;20055;-93
2022/12/01 03:10:54;;;;;;;3.03;2.67;;;;;;;16.51;38.06;102753.47;5038764;28;20506;-95
2022/12/01 03:13:46;;;;;;;2.95;2.50;;;;;;;16.54;38.09;102755.84;5035896;28;20031;-95
2022/12/01 03:16:19;;;;;;;3.38;2.72;;;;;;;16.51;38.03;102748.09;5035421;28;20032;-94
2022/12/01 03:19:04;;;;;;;2.70;2.38;;;;;;;16.53;38.08;102754.97;5052215;28;20021;-94
2022/12/01 03:21:29;;;;;;;3.40;2.83;;;;;;;16.53;38.08;102748.75;5035345;28;20029;-94
2022/12/01 03:23:58;;;;;;;4.78;2.78;;;;;;;16.54;37.80;102742.34;5053366;28;20040;-94
2022/12/01 03:26:24;;;;;;;2.70;2.50;;;;;;;16.51;38.14;102737.28;5035679;28;20056;-95
2022/12/01 03:28:56;;;;;;;2.83;2.53;;;;;;;16.51;38.13;102732.72;5035327;28;20035;-95
2022/12/01 03:31:27;;;;;;;3.13;2.70;;;;;;;16.52;37.90;102733.56;5035864;28;20056;-94
2022/12/01 03:34:08;;;;;;;3.30;2.60;;;;;;;16.52;37.96;102725.47;5051979;28;20029;-94
2022/12/01 03:37:00;;;;;;;2.78;2.22;;;;;;;16.50;37.96;102722.09;5036297;28;20102;-94
2022/12/01 03:39:31;;;;;;;2.92;2.38;;;;;;;16.53;38.03;102737.94;5030541;28;20083;-94
2022/12/01 03:42:03;;;;;;;3.28;2.65;;;;;;;16.54;38.03;102745.06;5035598;28;20444;-94
2022/12/01 03:44:32;;;;;;;2.72;2.40;;;;;;;16.52;38.16;102736.25;5035127;28;20031;-94
2022/12/01 03:47:05;;;;;;;2.72;2.28;;;;;;;16.53;37.92;102728.00;5034985;28;20064;-93
2022/12/01 03:49:31;;;;;;;2.88;2.50;;;;;;;16.50;38.18;102728.31;5035081;28;20505;-95
2022/12/01 03:52:02;;;;;;;3.50;2.78;;;;;;;16.53;38.03;102737.94;5017967;28;20120;-94
2022/12/01 03:54:30;;;;;;;2.38;2.10;;;;;;;16.51;38.17;102730.03;5034515;28;20044;-94
2022/12/01 03:56:59;;;;;;;2.45;2.00;;;;;;;16.53;37.94;102737.94;5051266;28;20025;-94
2022/12/01 03:59:25;;;;;;;3.20;2.53;;;;;;;16.55;38.04;102735.09;5034547;28;20152;-94
2022/12/01 04:01:50;;;;;;;2.60;2.40;;;;;;;16.55;38.11;102744.03;5018485;28;20115;-95
2022/12/01 04:04:16;;;;;;;2.55;2.20;;;;;;;16.50;37.95;102741.00;5050376;28;20116;-95
2022/12/01 04:06:43;;;;;;;2.78;2.45;;;;;;;16.56;38.09;102756.50;5034230;28;20359;-95
2022/12/01 04:09:09;;;;;;;3.13;2.53;;;;;;;16.50;38.05;102738.28;5034591;28;20032;-94
2022/12/01 04:14:19;;;;;;;2.47;2.10;;;;;;;16.53;38.02;102737.94;5037084;28;20028;-94
2022/12/01 04:16:44;;;;;;;2.67;2.20;;;;;;;16.52;37.92;102736.25;5034489;28;20419;-94
2022/12/01 04:19:13;;;;;;;2.55;2.22;;;;;;;16.48;38.12;102740.31;5050902;28;20052;-94
2022/12/01 04:21:39;;;;;;;2.42;2.22;;;;;;;16.55;37.91;102746.72;5017765;28;20021;-94
2022/12/01 04:24:05;;;;;;;2.65;2.15;;;;;;;16.48;38.14;102746.56;5052342;28;20526;-94
2022/12/01 04:26:35;;;;;;;2.65;2.20;;;;;;;16.51;37.97;102740.00;5017935;28;20416;-95
2022/12/01 04:29:05;;;;;;;2.58;2.25;;;;;;;16.53;38.05;102751.44;5017741;28;20116;-95
2022/12/01 04:31:31;;;;;;;2.45;2.20;;;;;;;16.53;38.03;102754.16;5018199;28;20036;-94
2022/12/01 04:33:57;;;;;;;2.30;2.10;;;;;;;16.54;37.90;102750.44;5034187;28;20021;-96
2022/12/01 04:36:26;;;;;;;2.47;2.10;;;;;;;16.51;37.96;102746.22;5017520;28;20040;-94
2022/12/01 04:38:52;;;;;;;2.65;2.30;;;;;;;16.53;38.03;102749.59;5033853;28;20139;-94
2022/12/01 04:41:18;;;;;;;2.50;2.20;;;;;;;16.52;38.03;102752.44;5017494;28;20037;-94
2022/12/01 04:43:45;;;;;;;2.33;2.13;;;;;;;16.55;37.94;102746.72;5050710;28;20480;-94
2022/12/01 04:46:11;;;;;;;2.20;2.00;;;;;;;16.52;38.02;102742.53;5033875;28;20112;-94
2022/12/01 04:48:37;;;;;;;2.60;2.22;;;;;;;16.54;37.90;102739.66;5033862;28;20120;-94
2022/12/01 04:51:07;;;;;;;2.38;2.00;;;;;;;16.56;38.07;102745.72;5033979;28;20079;-94
2022/12/01 04:53:32;;;;;;;2.25;1.90;;;;;;;16.53;37.82;102746.06;5017233;28;20021;-93
2022/12/01 04:55:59;;;;;;;2.90;2.30;;;;;;;16.52;37.89;102752.44;5033948;28;20536;-96
2022/12/01 04:58:25;;;;;;;2.72;2.03;;;;;;;16.53;38.16;102760.38;5017500;28;20100;-96
2022/12/01 05:00:53;;;;;;;2.55;2.30;;;;;;;16.49;37.98;102753.66;5033787;28;20035;-93
2022/12/01 05:03:19;;;;;;;2.67;2.08;;;;;;;16.56;38.23;102764.63;5017286;28;20452;-93
2022/12/01 05:05:45;;;;;;;2.97;2.15;;;;;;;16.53;37.94;102764.94;5016991;28;20089;-95
2022/12/01 05:08:10;;;;;;;2.28;2.08;;;;;;;16.54;37.87;102766.66;5016809;28;20505;-94
2022/12/01 05:10:36;;;;;;;2.53;2.00;;;;;;;16.52;38.05;102763.25;5016759;28;20024;-96
2022/12/01 05:13:05;;;;;;;2.60;2.05;;;;;;;16.55;37.85;102768.31;5033444;28;20487;-94
2022/12/01 05:15:31;;;;;;;2.67;1.92;;;;;;;16.51;37.78;102761.56;5033511;28;20045;-94
2022/12/01 05:17:56;;;;;;;2.33;2.08;;;;;;;16.54;38.02;102774.75;5018654;28;20062;-94
2022/12/01 05:23:09;;;;;;;3.00;2.38;;;;;;;16.52;37.98;102774.91;5040619;28;20075;-95
2022/12/01 05:25:36;;;;;;;2.45;2.20;;;;;;;16.55;37.88;102772.88;5037574;28;20024;-94
2022/12/01 05:28:02;;;;;;;2.20;1.95;;;;;;;16.53;37.98;102773.03;5038039;28;20025;-94
2022/12/01 05:30:28;;;;;;;2.17;1.90;;;;;;;16.53;37.82;102764.94;5021217;28;20036;-95
2022/12/01 05:32:53;;;;;;;3.20;1.88;;;;;;;16.56;37.87;102770.00;5036867;28;20041;-94
2022/12/01 05:35:19;;;;;;;2.13;1.92;;;;;;;16.53;38.02;102770.34;5020565;28;20135;-93
2022/12/01 05:37:45;;;;;;;1.95;1.75;;;;;;;16.53;37.94;102773.03;5020914;28;20115;-94
2022/12/01 05:40:11;;;;;;;2.88;2.25;;;;;;;16.52;37.94;102774.91;5020702;28;20108;-94
2022/12/01 05:42:36;;;;;;;2.25;1.92;;;;;;;16.56;37.99;102778.13;5037117;28;20029;-94
2022/12/01 05:45:06;;;;;;;1.95;1.83;;;;;;;16.53;37.80;102775.75;5037160;28;20064;-95
2022/12/01 05:47:32;;;;;;;2.10;1.90;;;;;;;16.55;37.86;102779.13;5020989;28;20056;-94
2022/12/01 05:49:57;;;;;;;2.15;1.90;;;;;;;16.53;37.98;102783.84;5037301;28;20112;-95
2022/12/01 05:52:23;;;;;;;2.63;2.17;;;;;;;16.53;37.94;102781.16;5020540;28;20021;-95
2022/12/01 05:54:48;;;;;;;2.22;2.03;;;;;;;16.51;38.03;102780.47;5020073;28;20123;-95
2022/12/01 05:57:14;;;;;;;2.53;1.85;;;;;;;16.51;37.99;102784.00;5020351;28;20083;-93
2022/12/01 05:59:40;;;;;;;1.98;1.70;;;;;;;16.54;37.94;102780.16;5020493;28;20056;-95
2022/12/01 06:02:05;;;;;;;2.40;1.80;;;;;;;16.53;37.92;102786.53;5037242;28;20060;-94
2022/12/01 06:04:31;;;;;;;2.00;1.80;;;;;;;16.54;37.88;102782.84;5037079;28;20171;-95
2022/12/01 06:06:56;;;;;;;2.20;1.70;;;;;;;16.56;37.85;102788.91;5020588;28;20033;-94
2022/12/01 06:09:22;;;;;;;2.10;1.90;;;;;;;16.51;38.11;102783.16;5053572;28;20129;-95
2022/12/01 06:11:48;;;;;;;1.88;1.65;;;;;;;16.52;37.93;102783.00;5052987;28;20025;-94
2022/12/01 06:14:22;;;;;;;1.98;1.77;;;;;;;16.52;37.90;102784.84;5054154;28;20043;-94
2022/12/01 06:16:48;;;;;;;1.95;1.75;;;;;;;16.51;37.92;102793.97;5053099;28;20083;-93
2022/12/01 06:19:14;;;;;;;2.58;1.90;;;;;;;16.52;38.03;102795.63;5035785;28;20033;-95
2022/12/01 06:21:39;;;;;;;1.75;1.60;;;;;;;16.54;37.87;102807.13;5052455;28;20147;-94
2022/12/01 06:24:05;;;;;;;2.40;1.90;;;;;;;16.53;37.92;102800.03;5035730;28;20035;-94
2022/12/01 06:26:31;;;;;;;2.42;1.67;;;;;;;16.52;38.08;102806.44;5052654;28;20075;-95
2022/12/01 06:28:56;;;;;;;2.25;2.05;;;;;;;16.55;38.02;102811.50;5052730;28;20048;-94
2022/12/01 06:31:22;;;;;;;2.42;1.98;;;;;;;16.51;38.16;102802.91;5052943;28;20445;-93
2022/12/01 06:33:48;;;;;;;2.60;2.00;;;;;;;16.55;37.87;102806.09;5036152;28;20387;-94
2022/12/01 06:36:13;;;;;;;2.10;1.90;;;;;;;16.52;37.95;102817.22;5039551;28;20051;-94
2022/12/01 06:38:42;;;;;;;2.90;1.98;;;;;;;16.50;37.99;102808.47;5016559;28;20043;-94
2022/12/01 06:41:07;;;;;;;2.28;1.85;;;;;;;16.49;37.82;102818.44;5016379;28;20028;-95
2022/12/01 06:43:36;;;;;;;2.05;1.70;;;;;;;16.50;37.97;102820.09;5000112;28;20186;-94
2022/12/01 06:46:03;;;;;;;2.17;1.92;;;;;;;16.57;37.99;102827.53;5016594;28;20441;-94
2022/12/01 06:48:30;;;;;;;2.25;2.05;;;;;;;16.55;37.93;102822.31;5000098;28;20033;-95
2022/12/01 06:50:57;;;;;;;2.50;2.00;;;;;;;16.51;37.88;102812.88;5034101;28;20461;-94
2022/12/01 06:53:23;;;;;;;2.00;1.75;;;;;;;16.50;37.90;102814.69;4999993;28;20453;-94
2022/12/01 06:55:51;;;;;;;2.58;2.20;;;;;;;16.52;37.83;102823.50;5033862;28;20048;-94
2022/12/01 06:58:17;;;;;;;2.22;2.03;;;;;;;16.52;37.96;102819.94;5033816;28;20124;-94
2022/12/01 07:00:46;;;;;;;2.30;1.88;;;;;;;16.55;37.99;102822.31;5000012;28;20144;-94
2022/12/01 07:03:12;;;;;;;2.50;1.90;;;;;;;16.55;37.87;102827.69;5033846;28;20025;-94
2022/12/01 07:05:37;;;;;;;2.25;1.90;;;;;;;16.53;37.97;102827.03;4983616;28;20028;-93
2022/12/01 07:08:05;;;;;;;2.10;1.90;;;;;;;16.51;38.10;102820.97;5015994;28;20458;-96
2022/12/01 07:10:31;;;;;;;2.15;1.95;;;;;;;16.50;37.85;102819.25;5000348;28;20029;-94
2022/12/01 07:12:56;;;;;;;2.17;1.90;;;;;;;16.52;37.99;102822.63;5015845;28;20109;-94
2022/12/01 07:15:23;;;;;;;2.47;2.08;;;;;;;16.50;37.91;102813.88;5015749;28;20029;-94
2022/12/01 07:17:49;;;;;;;2.08;1.85;;;;;;;16.50;37.96;102813.88;5015939;28;20029;-95
2022/12/01 07:20:15;;;;;;;2.40;2.10;;;;;;;16.51;38.03;102820.97;5015731;28;20464;-94
2022/12/01 07:22:41;;;;;;;2.67;2.15;;;;;;;16.51;37.84;102816.41;5033601;28;20105;-94
2022/12/01 07:25:08;;;;;;;2.72;2.22;;;;;;;16.55;37.93;102821.47;4999772;28;20029;-95
2022/12/01 07:27:33;;;;;;;2.95;2.10;;;;;;;16.53;37.79;102818.94;5033375;28;20452;-94
2022/12/01 07:29:59;;;;;;;2.58;2.10;;;;;;;16.56;37.80;102824.00;4999061;28;20104;-94
2022/12/01 07:32:25;;;;;;;2.40;2.03;;;;;;;16.54;37.82;102828.72;5033171;28;20469;-95
2022/12/01 07:34:50;;;;;;;2.50;2.03;;;;;;;16.53;38.00;102827.03;5015152;28;20528;-94
2022/12/01 07:37:16;;;;;;;2.08;1.83;;;;;;;16.50;37.89;102816.56;5015360;28;20087;-95
2022/12/01 07:39:41;;;;;;;3.10;2.40;;;;;;;16.55;38.04;102826.88;5032745;28;20113;-94
2022/12/01 07:42:07;;;;;;;2.67;2.22;;;;;;;16.55;37.97;102830.41;5015123;28;20100;-94
2022/12/01 07:44:33;;;;;;;2.63;2.20;;;;;;;16.55;37.84;102827.69;5015488;28;20105;-95
2022/12/01 07:46:58;;;;;;;2.08;1.73;;;;;;;16.52;37.97;102823.50;5033034;28;20026;-94
2022/12/01 07:49:24;;;;;;;2.17;1.83;;;;;;;16.51;37.95;102826.34;5032832;28;20029;-94
2022/12/01 07:51:50;;;;;;;3.30;2.15;;;;;;;16.53;38.20;102830.56;4999018;28;20027;-95
2022/12/01 07:54:16;;;;;;;2.58;2.13;;;;;;;16.53;38.01;102827.88;4998660;28;20114;-95
2022/12/01 07:56:42;;;;;;;2.08;1.80;;;;;;;16.55;37.95;102829.56;4983021;28;20392;-95
2022/12/01 07:59:08;;;;;;;2.67;1.98;;;;;;;16.52;37.96;102828.03;5014872;28;20041;-95
2022/12/01 08:01:33;;;;;;;2.67;2.00;;;;;;;16.51;37.96;102820.97;5032724;28;20036;-94
2022/12/01 08:03:59;;;;;;;2.33;2.13;;;;;;;16.53;37.85;102832.44;4998846;28;20060;-95
2022/12/01 08:06:25;;;;;;;2.70;2.25;;;;;;;16.54;37.93;102828.72;4998996;28;20059;-94
2022/12/01 08:08:51;;;;;;;2.50;2.20;;;;;;;16.53;37.96;102824.34;4998706;28;20065;-96
2022/12/01 08:11:18;;;;;;;3.38;2.30;;;;;;;16.50;38.02;102814.69;4998604;28;20022;-94
2022/12/01 08:13:44;;;;;;;2.53;2.10;;;;;;;16.55;38.05;102826.88;4998720;28;20028;-95
2022/12/01 08:16:13;;;;;;;2.05;1.65;;;;;;;16.51;38.02;102821.78;5014673;28;20022;-94
2022/12/01 08:18:39;;;;;;;2.38;2.03;;;;;;;16.53;37.90;102827.03;5032567;28;20108;-94
2022/12/01 08:21:06;;;;;;;2.53;1.90;;;;;;;16.57;37.85;102833.78;4982172;28;20116;-94
2022/12/01 08:23:32;;;;;;;2.95;2.20;;;;;;;16.52;38.04;102828.03;4998391;28;20033;-94
2022/12/01 08:26:01;;;;;;;2.60;2.03;;;;;;;16.50;37.96;102830.06;4998474;28;20122;-94
2022/12/01 08:28:27;;;;;;;2.30;2.10;;;;;;;16.49;37.85;102834.63;4998316;28;20053;-94
2022/12/01 08:30:53;;;;;;;2.25;1.92;;;;;;;16.51;37.82;102829.91;4998340;28;20025;-95
2022/12/01 08:33:18;;;;;;;3.45;1.98;;;;;;;16.52;37.97;102828.03;4998038;28;20476;-94
2022/12/01 08:35:44;;;;;;;2.40;2.10;;;;;;;16.56;37.84;102839.34;5015779;28;20132;-95
2022/12/01 08:38:11;;;;;;;2.72;1.92;;;;;;;16.55;37.85;102840.38;5034186;28;20031;-94
2022/12/01 08:40:36;;;;;;;2.45;2.10;;;;;;;16.56;37.90;102840.19;5034752;28;20392;-95
2022/12/01 08:43:05;;;;;;;3.42;2.53;;;;;;;16.55;38.05;102849.28;5017530;28;20115;-94
2022/12/01 08:45:30;;;;;;;2.67;2.08;;;;;;;16.53;37.80;102841.38;5034313;28;20031;-95
2022/12/01 08:47:57;;;;;;;2.88;2.33;;;;;;;16.49;37.91;102828.38;5017635;28;20461;-95
2022/12/01 08:50:26;;;;;;;2.42;2.17;;;;;;;16.54;37.95;102842.22;5017886;28;20025;-94
2022/12/01 08:52:55;;;;;;;2.03;1.80;;;;;;;16.54;37.92;102844.94;5033223;28;20029;-94
2022/12/01 08:55:21;;;;;;;2.80;2.05;;;;;;;16.54;37.89;102847.63;5033537;28;20510;-94
2022/12/01 08:57:46;;;;;;;2.50;2.00;;;;;;;16.56;37.91;102845.59;5017122;28;20029;-95
2022/12/01 09:00:13;;;;;;;1.98;1.77;;;;;;;16.56;37.94;102834.81;5050404;28;20132;-95
2022/12/01 09:02:41;;;;;;;2.50;2.15;;;;;;;16.56;37.88;102844.72;5033540;28;20082;-95
2022/12/01 09:05:09;;;;;;;2.55;2.00;;;;;;;16.55;38.17;102845.75;5033768;28;20403;-93
2022/12/01 09:07:35;;;;;;;2.42;2.10;;;;;;;16.52;38.01;102838.81;5033533;28;20163;-94
2022/12/01 09:10:00;;;;;;;2.50;2.10;;;;;;;16.57;37.94;102846.44;5016982;28;20487;-95
2022/12/01 09:12:28;;;;;;;2.50;1.95;;;;;;;16.57;38.36;102852.66;5033594;28;20111;-95
2022/12/01 09:14:53;;;;;;;2.65;2.10;;;;;;;16.55;37.96;102853.88;5017135;28;20033;-94
2022/12/01 09:17:19;;;;;;;2.45;2.00;;;;;;;16.56;37.94;102844.72;5033549;28;20025;-94
2022/12/01 09:19:45;;;;;;;1.77;1.52;;;;;;;16.53;38.02;102851.31;5033511;28;20490;-95
2022/12/01 09:22:10;;;;;;;2.65;2.10;;;;;;;16.54;38.01;102844.94;5017179;28;20484;-95
2022/12/01 09:24:36;;;;;;;2.28;2.00;;;;;;;16.53;38.01;102845.94;5033709;28;20436;-94
2022/12/01 09:27:05;;;;;;;2.63;1.95;;;;;;;16.54;37.77;102847.63;5033942;28;20029;-94
2022/12/01 09:29:31;;;;;;;2.78;2.33;;;;;;;16.53;37.94;102846.75;5033842;28;20074;-96
2022/12/01 09:31:57;;;;;;;2.30;1.77;;;;;;;16.57;37.96;102852.66;5017229;28;20028;-95
2022/12/01 09:34:23;;;;;;;2.50;2.13;;;;;;;16.57;37.99;102858.06;5033170;28;20134;-94
2022/12/01 09:36:49;;;;;;;2.30;1.80;;;;;;;16.54;37.90;102847.63;5033159;28;20500;-95
2022/12/01 09:39:17;;;;;;;2.95;2.28;;;;;;;16.53;38.18;102845.94;5049239;28;20028;-94
2022/12/01 09:41:57;;;;;;;2.70;2.30;;;;;;;16.59;38.01;102856.06;5033216;28;20103;-94
2022/12/01 09:44:47;;;;;;;3.03;2.25;;;;;;;16.58;37.94;102842.75;5050671;28;20078;-94
2022/12/01 09:47:34;;;;;;;2.83;2.20;;;;;;;16.58;38.05;102848.97;5032645;28;20056;-95
2022/12/01 09:50:09;;;;;;;2.45;2.13;;;;;;;16.58;38.01;102851.66;5049820;28;20129;-94
2022/12/01 09:52:50;;;;;;;2.40;1.92;;;;;;;16.51;37.89;102848.78;5033128;28;20433;-94
2022/12/01 09:55:17;;;;;;;3.13;2.03;;;;;;;16.56;38.08;102859.09;5032846;28;20028;-96
2022/12/01 09:57:45;;;;;;;2.65;2.13;;;;;;;16.53;37.96;102856.72;5033403;28;20100;-95
2022/12/01 10:00:13;;;;;;;2.75;2.10;;;;;;;16.56;38.02;102855.53;5033701;28;20037;-94
2022/12/01 10:03:11;;;;;;;3.05;2.40;;;;;;;16.57;38.09;102852.66;5016128;28;20033;-93
2022/12/01 10:05:46;;;;;;;2.42;1.95;;;;;;;16.53;37.95;102852.16;5010745;28;20048;-94
2022/12/01 10:08:14;;;;;;;2.33;2.03;;;;;;;16.54;38.17;102853.03;5037138;28;20021;-95
2022/12/01 10:10:43;;;;;;;2.38;1.90;;;;;;;16.53;38.03;102844.06;5053534;28;20025;-94
2022/12/01 10:13:19;;;;;;;2.53;2.10;;;;;;;16.53;38.00;102848.63;5053429;28;20025;-95
2022/12/01 10:15:51;;;;;;;3.40;2.20;;;;;;;16.57;38.11;102855.38;5053778;28;20067;-94
2022/12/01 10:18:36;;;;;;;2.45;1.98;;;;;;;16.57;38.00;102851.84;5054467;28;20025;-95
2022/12/01 10:21:39;;;;;;;2.45;2.00;;;;;;;16.56;38.11;102851.00;5053336;28;20025;-95
2022/12/01 10:24:17;;;;;;;3.63;2.38;;;;;;;16.54;38.04;102839.53;5053007;28;20029;-94
2022/12/01 10:26:49;;;;;;;2.90;2.17;;;;;;;16.56;38.09;102850.13;5054394;28;20353;-94
2022/12/01 10:29:28;;;;;;;3.50;2.15;;;;;;;16.55;38.15;102843.91;5054490;28;20388;-94
2022/12/01 10:32:02;;;;;;;2.30;1.88;;;;;;;16.52;37.97;102838.81;5036709;28;20020;-95
2022/12/01 10:34:31;;;;;;;3.63;2.30;;;;;;;16.52;37.90;102839.69;5020911;28;20021;-94
2022/12/01 10:36:56;;;;;;;2.83;1.92;;;;;;;16.53;38.06;102845.94;5000237;28;20037;-95
2022/12/01 10:39:28;;;;;;;2.40;2.00;;;;;;;16.57;38.10;102851.84;5000109;28;20467;-94
2022/12/01 10:41:58;;;;;;;2.45;1.90;;;;;;;16.55;38.11;102845.75;5016501;28;20440;-95
2022/12/01 10:44:24;;;;;;;2.65;1.90;;;;;;;16.53;37.97;102840.53;5016627;28;20026;-95
2022/12/01 10:46:52;;;;;;;2.33;1.80;;;;;;;16.53;38.20;102845.94;5000160;28;20025;-95
2022/12/01 10:49:18;;;;;;;2.30;1.83;;;;;;;16.53;38.05;102840.53;4999990;28;20025;-96
2022/12/01 10:51:57;;;;;;;3.17;2.28;;;;;;;16.56;37.96;102845.59;4983794;28;20087;-95
2022/12/01 10:54:30;;;;;;;2.38;1.65;;;;;;;16.56;38.09;102840.19;5016993;28;20472;-94
2022/12/01 10:56:56;;;;;;;2.83;2.00;;;;;;;16.52;38.12;102833.44;5016627;28;20115;-94
2022/12/01 10:59:36;;;;;;;2.33;2.03;;;;;;;16.55;38.13;102832.25;4999913;28;20787;-95
2022/12/01 11:02:04;;;;;;;2.67;1.90;;;;;;;16.57;38.07;102841.03;5016193;28;20021;-96
2022/12/01 11:04:34;;;;;;;2.95;2.17;;;;;;;16.54;38.17;102831.44;4999994;28;20435;-95
2022/12/01 11:07:00;;;;;;;2.97;1.77;;;;;;;16.54;38.11;102831.44;5016117;28;20025;-95
2022/12/01 11:09:27;;;;;;;3.30;1.90;;;;;;;16.56;38.09;102836.63;5033583;28;20505;-95
2022/12/01 11:12:02;;;;;;;3.38;2.38;;;;;;;16.55;38.12;102833.09;4999797;28;20053;-95
2022/12/01 11:14:44;;;;;;;2.00;1.80;;;;;;;16.58;38.09;102832.78;4999510;28;20033;-96
2022/12/01 11:17:32;;;;;;;2.28;1.95;;;;;;;16.52;38.13;102828.03;5015543;28;20021;-94
2022/12/01 11:19:58;;;;;;;3.17;2.17;;;;;;;16.58;38.05;102837.34;5000428;28;20522;-95
2022/12/01 11:22:28;;;;;;;2.50;2.10;;;;;;;16.53;38.05;102835.13;5033405;28;20049;-95
2022/12/01 11:25:06;;;;;;;2.83;2.15;;;;;;;16.56;38.06;102833.94;4999818;28;20027;-95
2022/12/01 11:27:49;;;;;;;2.88;2.00;;;;;;;16.56;37.95;102837.50;4998367;28;20033;-94
2022/12/01 11:30:25;;;;;;;3.15;2.25;;;;;;;16.54;38.15;102836.84;5033280;28;20489;-95
2022/12/01 11:32:52;;;;;;;2.47;2.03;;;;;;;16.55;38.05;102843.91;4999229;28;20032;-95
2022/12/01 11:35:19;;;;;;;2.70;2.10;;;;;;;16.54;38.15;102842.22;5009102;28;20053;-95
2022/12/01 11:37:54;;;;;;;2.47;2.28;;;;;;;16.57;38.17;102846.44;5018813;28;20024;-95
2022/12/01 11:40:22;;;;;;;3.28;2.22;;;;;;;16.58;38.12;102843.56;5035728;28;20087;-95